Cross River, New York
Current Conditions -  °F | °C
As of 12:53 PM on Monday 24 Nov 2014 (Local Time) from KDXR Reporting Station
Broken Clouds Broken Clouds  
Wind Chill: 65°   Ceiling: 1200
Heat Index: 65°   Visibility: 10mi
Dew Point: 58°   Wind: 10mph
Humidity: 78%   Direction: 180°S
Pressure: 29.61"   Gusts: 26mph
Location:  41.26°N, 73.61°W
Report Text: KDXR 241753Z 18009G23KT 150V220 10SM BKN012 18/14 A2961 RMK AO2 SLP025 60011 T01830144 10183 20161 58029
Loading
Personal Weather Stations






























Interactive Weather Map New forecast layout! Learn more

10-Day Weather Forecast

Advertisements
Track Severe Weather on mobile